Time;durP1;ratioP1;P1;durP2;ratioP2;P2;SDS_P1;SDS_P2;PMS_P1;PMS_P2;Temp;Humidity;BMP_temperature;BMP_pressure;BME280_temperature;BME280_humidity;BME280_pressure;Samples;Min_cycle;Max_cycle;Signal;HPM_P1;HPM_P2
2022/03/16 00:00:17;;;;;;;26.67;23.45;;;5.60;99.90;;;;;;5012593;28;20030;-75
2022/03/16 00:02:43;;;;;;;31.70;26.55;;;5.60;99.90;;;;;;4998805;28;20022;-75
2022/03/16 00:05:09;;;;;;;33.15;28.98;;;5.60;99.90;;;;;;5013047;28;20113;-75
2022/03/16 00:07:34;;;;;;;29.23;25.15;;;5.60;99.90;;;;;;5009395;28;20112;-74
2022/03/16 00:10:00;;;;;;;34.25;28.00;;;5.50;99.90;;;;;;5010119;28;20040;-75
2022/03/16 00:12:26;;;;;;;36.58;29.42;;;5.50;99.90;;;;;;5007676;28;20026;-75
2022/03/16 00:14:51;;;;;;;32.85;27.90;;;5.40;99.90;;;;;;5011436;28;20034;-74
2022/03/16 00:17:17;;;;;;;35.08;29.00;;;5.40;99.90;;;;;;5004363;28;20022;-75
2022/03/16 00:19:43;;;;;;;34.38;28.38;;;5.50;99.90;;;;;;5009881;28;20060;-75
2022/03/16 00:22:10;;;;;;;35.40;30.02;;;5.50;99.90;;;;;;5010104;28;20387;-75
2022/03/16 00:24:35;;;;;;;37.70;30.63;;;5.50;99.90;;;;;;5013241;28;20395;-75
2022/03/16 00:27:01;;;;;;;33.55;28.85;;;5.50;99.90;;;;;;5011201;28;20026;-75
2022/03/16 00:29:27;;;;;;;36.25;29.80;;;5.50;99.90;;;;;;5005117;28;20518;-75
2022/03/16 00:31:52;;;;;;;36.47;30.38;;;5.60;99.90;;;;;;5005678;28;20058;-75
2022/03/16 00:34:19;;;;;;;33.55;28.17;;;5.60;99.90;;;;;;4999899;28;20031;-75
2022/03/16 00:36:45;;;;;;;39.53;30.98;;;5.60;99.90;;;;;;5003525;28;20034;-75
2022/03/16 00:39:10;;;;;;;38.75;30.30;;;5.60;99.90;;;;;;5004247;28;20030;-75
2022/03/16 00:41:37;;;;;;;32.85;28.10;;;5.50;99.90;;;;;;5004315;28;20034;-75
2022/03/16 00:44:06;;;;;;;44.15;31.85;;;5.40;99.90;;;;;;5012082;28;20079;-75
2022/03/16 00:46:32;;;;;;;44.75;33.80;;;5.50;99.90;;;;;;5006904;28;20026;-75
2022/03/16 00:48:58;;;;;;;34.72;28.48;;;5.50;99.90;;;;;;4992506;28;20507;-75
2022/03/16 00:51:24;;;;;;;30.23;26.00;;;5.40;99.90;;;;;;5006443;28;20025;-75
2022/03/16 00:53:50;;;;;;;29.50;25.88;;;5.40;99.90;;;;;;5012679;28;20065;-74
2022/03/16 00:56:16;;;;;;;28.70;25.42;;;5.40;99.90;;;;;;5003944;28;20666;-74
2022/03/16 00:58:41;;;;;;;31.00;27.08;;;5.50;99.90;;;;;;4997731;28;20026;-74
2022/03/16 01:01:07;;;;;;;30.33;26.65;;;5.50;99.90;;;;;;5009044;28;20028;-74
2022/03/16 01:03:34;;;;;;;31.48;27.75;;;5.60;99.90;;;;;;5000818;28;20042;-74
2022/03/16 01:05:59;;;;;;;36.20;29.52;;;5.60;99.90;;;;;;5006187;28;20021;-74
2022/03/16 01:08:25;;;;;;;38.10;29.92;;;5.50;99.90;;;;;;5001443;28;20024;-73
2022/03/16 01:10:50;;;;;;;33.72;28.33;;;5.50;99.90;;;;;;5002827;28;20057;-73
2022/03/16 01:13:16;;;;;;;32.63;26.45;;;5.40;99.90;;;;;;5009563;28;20380;-73
2022/03/16 01:15:42;;;;;;;31.42;27.38;;;5.30;99.90;;;;;;5004347;28;20026;-74
2022/03/16 01:18:08;;;;;;;32.35;26.88;;;5.40;99.90;;;;;;5022447;22;20082;-72
2022/03/16 01:20:33;;;;;;;30.33;26.38;;;5.40;99.90;;;;;;4972874;28;20487;-71
2022/03/16 01:22:59;;;;;;;30.63;26.63;;;5.40;99.90;;;;;;4972993;28;20031;-72
2022/03/16 01:25:24;;;;;;;34.28;28.45;;;5.40;99.90;;;;;;4972563;28;20033;-72
2022/03/16 01:27:50;;;;;;;27.85;24.88;;;5.40;99.90;;;;;;4971537;28;20023;-72
2022/03/16 01:30:16;;;;;;;30.50;25.85;;;5.30;99.90;;;;;;4957332;28;20050;-73
2022/03/16 01:32:42;;;;;;;31.83;27.40;;;5.30;99.90;;;;;;4960140;28;20035;-72
2022/03/16 01:35:09;;;;;;;28.85;25.08;;;5.40;99.90;;;;;;4965084;28;20034;-71
2022/03/16 01:37:35;;;;;;;32.65;27.65;;;5.40;99.90;;;;;;4953811;28;20035;-71
2022/03/16 01:40:01;;;;;;;36.53;29.55;;;5.40;99.90;;;;;;4953511;28;20138;-71
2022/03/16 01:42:27;;;;;;;36.40;31.95;;;5.40;99.90;;;;;;4961822;28;20508;-72
2022/03/16 01:44:55;;;;;;;36.88;30.30;;;5.30;99.90;;;;;;4957593;28;20100;-71
2022/03/16 01:47:22;;;;;;;32.50;27.92;;;5.30;99.90;;;;;;4955945;28;20024;-71
2022/03/16 01:49:49;;;;;;;33.42;27.83;;;5.30;99.90;;;;;;4952252;28;20110;-72
2022/03/16 01:52:19;;;;;;;33.42;27.90;;;5.20;99.90;;;;;;4953406;28;20031;-72
2022/03/16 01:54:45;;;;;;;43.08;32.72;;;5.20;99.90;;;;;;4953657;28;20086;-73
2022/03/16 01:57:11;;;;;;;36.58;30.55;;;5.10;99.90;;;;;;4953397;28;20027;-72
2022/03/16 01:59:37;;;;;;;32.33;27.48;;;5.10;99.90;;;;;;4956349;28;20038;-72
2022/03/16 02:02:04;;;;;;;55.22;35.28;;;5.10;99.90;;;;;;4956873;28;20106;-72
2022/03/16 02:04:30;;;;;;;34.50;28.25;;;5.10;99.90;;;;;;4956273;28;20019;-72
2022/03/16 02:06:56;;;;;;;39.97;30.83;;;5.10;99.90;;;;;;4964509;28;20027;-73
2022/03/16 02:09:23;;;;;;;46.72;33.53;;;5.10;99.90;;;;;;4968344;28;20027;-73
2022/03/16 02:11:48;;;;;;;42.25;32.35;;;5.10;99.90;;;;;;4963473;28;20030;-73
2022/03/16 02:14:14;;;;;;;38.10;30.13;;;5.10;99.90;;;;;;4965783;28;20027;-72
2022/03/16 02:16:40;;;;;;;45.65;34.47;;;5.20;99.90;;;;;;4959371;28;20067;-72
2022/03/16 02:19:05;;;;;;;37.60;30.55;;;5.10;99.90;;;;;;4958794;28;20034;-72
2022/03/16 02:21:36;;;;;;;40.97;31.27;;;5.10;99.90;;;;;;4951926;28;20428;-72
2022/03/16 02:24:02;;;;;;;43.33;31.60;;;5.00;99.90;;;;;;4955714;28;20485;-73
2022/03/16 02:26:28;;;;;;;43.50;32.28;;;5.10;99.90;;;;;;4957161;28;20038;-72
2022/03/16 02:28:54;;;;;;;47.03;33.35;;;5.10;99.90;;;;;;4955696;28;20031;-72
2022/03/16 02:31:20;;;;;;;42.90;33.00;;;5.10;99.90;;;;;;4955611;29;20020;-72
2022/03/16 02:33:46;;;;;;;61.25;38.80;;;5.10;99.90;;;;;;4956791;28;20034;-73
2022/03/16 02:36:11;;;;;;;60.80;39.20;;;5.00;99.90;;;;;;4955682;28;20031;-72
2022/03/16 02:38:37;;;;;;;56.95;38.17;;;5.00;99.90;;;;;;4956063;28;20024;-74
2022/03/16 02:41:03;;;;;;;48.90;36.88;;;5.00;99.90;;;;;;4967719;28;20027;-73
2022/03/16 02:43:29;;;;;;;50.83;37.10;;;4.90;99.90;;;;;;4976294;28;20023;-73
2022/03/16 02:45:55;;;;;;;46.53;34.80;;;4.50;99.90;;;;;;4976402;28;20515;-74
2022/03/16 02:48:21;;;;;;;41.85;33.33;;;4.60;99.90;;;;;;4957461;28;20105;-73
2022/03/16 02:50:48;;;;;;;52.33;36.58;;;4.50;99.90;;;;;;4955632;28;20028;-73
2022/03/16 02:53:14;;;;;;;47.88;33.88;;;4.40;99.90;;;;;;4955873;28;20059;-72
2022/03/16 02:55:39;;;;;;;43.17;33.75;;;4.40;99.90;;;;;;4956974;28;20058;-73
2022/03/16 02:58:05;;;;;;;40.92;31.73;;;4.30;99.90;;;;;;4956856;28;20070;-72
2022/03/16 03:00:31;;;;;;;42.85;32.90;;;4.20;99.90;;;;;;4956734;28;20416;-72
2022/03/16 03:02:56;;;;;;;57.95;37.05;;;4.10;99.90;;;;;;4957399;28;20035;-72
2022/03/16 03:05:22;;;;;;;47.72;35.03;;;4.10;99.90;;;;;;4957115;28;20019;-72
2022/03/16 03:07:48;;;;;;;41.63;32.20;;;4.00;99.90;;;;;;4956735;28;20023;-72
2022/03/16 03:10:13;;;;;;;42.13;31.92;;;3.90;99.90;;;;;;4955467;28;20031;-73
2022/03/16 03:12:39;;;;;;;57.95;37.25;;;3.80;99.90;;;;;;4956693;28;20027;-73
2022/03/16 03:15:06;;;;;;;52.13;36.17;;;3.80;99.90;;;;;;4956801;28;20028;-71
2022/03/16 03:17:31;;;;;;;48.92;34.22;;;3.90;99.90;;;;;;4956680;29;20050;-72
2022/03/16 03:19:57;;;;;;;42.35;32.53;;;3.90;99.90;;;;;;4956669;28;20106;-73
2022/03/16 03:22:27;;;;;;;36.92;30.40;;;3.90;99.90;;;;;;4954658;28;20029;-73
2022/03/16 03:24:54;;;;;;;50.72;35.72;;;3.90;99.90;;;;;;4956805;28;20027;-73
2022/03/16 03:27:20;;;;;;;81.65;46.92;;;3.80;99.90;;;;;;4956476;28;20015;-73
2022/03/16 03:29:46;;;;;;;53.58;38.35;;;3.90;99.90;;;;;;4955437;29;20031;-74
2022/03/16 03:32:11;;;;;;;44.25;35.20;;;3.90;99.90;;;;;;4955000;28;20031;-73
2022/03/16 03:34:37;;;;;;;82.65;48.03;;;4.00;99.90;;;;;;4966966;28;20027;-71
2022/03/16 03:37:02;;;;;;;46.85;36.08;;;3.60;99.90;;;;;;4975382;28;20070;-72
2022/03/16 03:39:28;;;;;;;59.53;40.40;;;3.60;99.90;;;;;;4975736;28;20106;-71
2022/03/16 03:41:53;;;;;;;54.83;39.95;;;3.60;99.90;;;;;;4973819;28;20121;-71
2022/03/16 03:44:19;;;;;;;56.95;41.78;;;3.60;99.90;;;;;;4975300;28;20420;-72
2022/03/16 03:46:45;;;;;;;50.05;37.58;;;3.60;99.90;;;;;;4956692;28;20038;-72
2022/03/16 03:49:10;;;;;;;59.00;41.70;;;3.60;99.90;;;;;;4956014;28;20023;-73
2022/03/16 03:51:36;;;;;;;54.60;38.88;;;3.80;99.90;;;;;;4955594;28;20031;-71
2022/03/16 03:54:01;;;;;;;58.60;41.67;;;3.80;99.90;;;;;;4955879;28;20035;-71
2022/03/16 03:56:27;;;;;;;87.43;48.88;;;3.70;99.90;;;;;;4955529;28;20074;-71
2022/03/16 03:58:52;;;;;;;628.67;104.85;;;3.60;99.90;;;;;;4955718;28;20023;-71
2022/03/16 04:01:18;;;;;;;278.08;59.20;;;3.20;99.90;;;;;;4955555;28;20031;-71
2022/03/16 04:03:43;;;;;;;82.75;44.28;;;3.10;99.90;;;;;;4955699;28;20031;-71
2022/03/16 04:06:10;;;;;;;54.05;38.63;;;3.20;99.90;;;;;;4954241;28;20029;-72
2022/03/16 04:08:36;;;;;;;47.78;37.80;;;3.40;99.90;;;;;;4955773;28;20102;-71
2022/03/16 04:11:02;;;;;;;53.75;40.63;;;3.50;99.90;;;;;;4954040;28;20051;-73
2022/03/16 04:13:27;;;;;;;87.68;49.45;;;3.70;99.90;;;;;;4954220;29;20023;-71
2022/03/16 04:15:53;;;;;;;205.68;71.93;;;3.60;99.90;;;;;;4955419;28;20031;-71
2022/03/16 04:18:19;;;;;;;102.60;53.40;;;3.60;99.90;;;;;;4955257;28;20050;-72
2022/03/16 04:20:44;;;;;;;144.18;61.05;;;3.90;99.90;;;;;;4955043;28;20106;-72
2022/03/16 04:23:10;;;;;;;69.20;44.85;;;3.80;99.90;;;;;;4953748;28;20485;-72
2022/03/16 04:25:35;;;;;;;76.65;48.58;;;3.70;99.90;;;;;;4972529;28;20509;-73
2022/03/16 04:28:01;;;;;;;74.65;47.42;;;3.70;99.90;;;;;;4974494;28;20094;-72
2022/03/16 04:30:27;;;;;;;68.05;45.65;;;3.80;99.90;;;;;;4972951;28;20081;-71
2022/03/16 04:32:52;;;;;;;124.43;59.03;;;3.90;99.90;;;;;;4973412;28;20030;-70
2022/03/16 04:35:22;;;;;;;92.78;42.30;;;3.80;99.90;;;;;;4974267;28;20034;-71
2022/03/16 04:37:48;;;;;;;176.00;56.03;;;3.70;99.90;;;;;;4963915;28;20114;-72
2022/03/16 04:40:14;;;;;;;106.78;47.58;;;3.60;99.90;;;;;;4954848;28;20089;-71
2022/03/16 04:42:40;;;;;;;148.13;56.92;;;3.70;99.90;;;;;;4954828;28;20490;-71
2022/03/16 04:45:06;;;;;;;229.32;71.13;;;3.60;99.90;;;;;;4955002;28;20019;-73
2022/03/16 04:47:32;;;;;;;783.35;116.90;;;3.50;99.90;;;;;;4953297;29;20060;-73
2022/03/16 04:49:57;;;;;;;988.05;99.72;;;3.40;99.90;;;;;;4954638;28;20028;-72
2022/03/16 04:52:25;;;;;;;1458.35;130.32;;;3.30;99.90;;;;;;4954740;28;20027;-71
2022/03/16 04:54:50;;;;;;;1062.57;111.55;;;3.10;99.90;;;;;;4954661;28;20117;-73
2022/03/16 04:57:16;;;;;;;332.65;52.00;;;2.90;99.90;;;;;;4954629;28;20058;-71
2022/03/16 04:59:41;;;;;;;486.17;68.47;;;2.80;99.90;;;;;;4954411;28;20042;-71
2022/03/16 05:02:07;;;;;;;226.85;48.40;;;3.00;99.90;;;;;;4954244;28;20049;-71
2022/03/16 05:04:32;;;;;;;209.13;53.60;;;3.20;99.90;;;;;;4953247;29;20032;-70
2022/03/16 05:06:58;;;;;;;564.25;76.72;;;3.20;99.90;;;;;;4954453;28;20476;-72
2022/03/16 05:09:23;;;;;;;605.35;98.07;;;3.10;99.90;;;;;;4954311;28;20019;-71
2022/03/16 05:11:49;;;;;;;158.45;54.92;;;3.10;99.90;;;;;;4964463;28;20084;-73
2022/03/16 05:14:14;;;;;;;664.55;117.70;;;3.10;99.90;;;;;;4957181;28;20036;-72
2022/03/16 05:16:40;;;;;;;425.52;76.88;;;3.00;99.90;;;;;;4954302;28;20477;-73
2022/03/16 05:19:06;;;;;;;167.63;59.25;;;3.10;99.90;;;;;;4967537;28;20038;-74
2022/03/16 05:21:32;;;;;;;189.88;55.85;;;3.10;99.90;;;;;;4957617;28;20038;-72
2022/03/16 05:23:58;;;;;;;92.03;46.22;;;3.20;99.90;;;;;;4971605;28;20034;-73
2022/03/16 05:26:23;;;;;;;179.73;57.47;;;3.30;99.90;;;;;;4973960;28;20023;-72
2022/03/16 05:28:49;;;;;;;164.98;48.83;;;3.30;99.90;;;;;;4973723;28;20019;-72
2022/03/16 05:31:15;;;;;;;123.50;52.92;;;3.30;99.90;;;;;;4973474;28;20377;-74
2022/03/16 05:33:40;;;;;;;419.27;86.50;;;3.20;99.90;;;;;;4967523;28;20035;-73
2022/03/16 05:36:06;;;;;;;164.85;50.10;;;3.30;99.90;;;;;;4953054;28;20028;-69
2022/03/16 05:38:31;;;;;;;203.20;55.95;;;3.10;99.90;;;;;;4954048;28;20051;-73
2022/03/16 05:40:57;;;;;;;185.52;56.15;;;3.00;99.90;;;;;;4954202;28;20023;-74
2022/03/16 05:43:23;;;;;;;143.73;56.67;;;3.00;99.90;;;;;;4954220;28;20062;-73
2022/03/16 05:45:49;;;;;;;48.97;36.67;;;3.10;99.90;;;;;;4954569;28;20094;-72
2022/03/16 05:48:15;;;;;;;77.97;48.30;;;3.20;99.90;;;;;;4958473;28;20069;-72
2022/03/16 05:50:44;;;;;;;82.90;47.00;;;3.40;99.90;;;;;;4973309;28;20022;-75
2022/03/16 05:53:10;;;;;;;46.50;37.00;;;3.30;99.90;;;;;;4973395;28;20484;-72
2022/03/16 05:55:35;;;;;;;72.70;45.30;;;3.50;99.90;;;;;;4962602;28;20031;-73
2022/03/16 05:58:01;;;;;;;42.58;34.63;;;3.60;99.90;;;;;;4953852;28;20113;-73
2022/03/16 06:00:27;;;;;;;82.57;49.55;;;3.60;99.90;;;;;;4964482;28;20027;-72
2022/03/16 06:02:53;;;;;;;224.57;88.00;;;3.60;99.90;;;;;;4968303;28;20050;-72
2022/03/16 06:05:19;;;;;;;96.18;46.95;;;3.30;99.90;;;;;;4954439;28;20035;-72
2022/03/16 06:07:45;;;;;;;133.38;41.70;;;3.30;99.90;;;;;;4954085;28;20043;-73
2022/03/16 06:10:15;;;;;;;205.07;42.47;;;3.40;99.90;;;;;;4952863;29;20027;-72
2022/03/16 06:12:53;;;;;;;535.53;62.28;;;3.40;99.90;;;;;;4953975;28;20577;-73
2022/03/16 06:15:19;;;;;;;441.45;58.05;;;3.20;99.90;;;;;;4953684;28;20140;-72
2022/03/16 06:17:45;;;;;;;274.23;51.13;;;3.20;99.90;;;;;;4971683;28;20624;-73
2022/03/16 06:20:10;;;;;;;354.70;62.60;;;3.30;99.90;;;;;;4972731;28;20031;-72
2022/03/16 06:22:36;;;;;;;479.48;85.35;;;3.40;99.90;;;;;;4956983;28;20515;-73
2022/03/16 06:25:01;;;;;;;236.48;77.30;;;3.30;99.90;;;;;;4966122;28;20094;-72
2022/03/16 06:27:28;;;;;;;243.10;54.67;;;3.40;99.90;;;;;;4967151;28;20098;-73
2022/03/16 06:29:53;;;;;;;765.40;85.57;;;3.30;99.90;;;;;;4965622;28;20110;-72
2022/03/16 06:32:19;;;;;;;475.55;58.80;;;3.30;99.90;;;;;;4972318;28;20114;-73
2022/03/16 06:34:46;;;;;;;497.27;63.65;;;3.20;99.90;;;;;;4960818;28;20059;-73
2022/03/16 06:37:12;;;;;;;442.67;61.08;;;3.30;99.90;;;;;;4959059;28;20030;-73
2022/03/16 06:39:38;;;;;;;518.85;64.82;;;3.30;99.90;;;;;;4972643;28;20027;-72
2022/03/16 06:42:03;;;;;;;558.83;65.10;;;3.20;99.90;;;;;;4972322;28;20110;-73
2022/03/16 06:44:29;;;;;;;477.10;61.72;;;3.20;99.90;;;;;;4973513;28;20507;-73
2022/03/16 06:46:54;;;;;;;479.77;64.65;;;3.30;99.90;;;;;;4974874;28;20027;-73
2022/03/16 06:49:20;;;;;;;477.10;78.38;;;3.40;99.90;;;;;;4964134;28;20027;-73
2022/03/16 06:51:45;;;;;;;702.78;99.90;;;3.50;99.90;;;;;;4975169;28;20110;-73
2022/03/16 06:54:11;;;;;;;391.40;55.92;;;3.60;99.90;;;;;;4974740;28;20031;-72
2022/03/16 06:56:37;;;;;;;321.75;65.85;;;3.60;99.90;;;;;;4975835;28;20062;-73
2022/03/16 06:59:02;;;;;;;360.73;53.55;;;3.70;99.90;;;;;;4975938;28;20035;-72
2022/03/16 07:01:28;;;;;;;668.65;88.05;;;3.70;99.90;;;;;;4975686;28;20035;-73
2022/03/16 07:03:53;;;;;;;248.75;51.15;;;3.60;99.90;;;;;;4975934;28;20516;-72
2022/03/16 07:06:19;;;;;;;1144.95;104.40;;;3.80;99.90;;;;;;4970267;28;20031;-72
2022/03/16 07:08:46;;;;;;;681.40;73.40;;;3.80;99.90;;;;;;4956529;28;20038;-72
2022/03/16 07:11:12;;;;;;;679.55;83.13;;;3.70;99.90;;;;;;4954789;29;20089;-72
2022/03/16 07:13:38;;;;;;;636.42;68.72;;;3.70;99.90;;;;;;4956255;28;20481;-72
2022/03/16 07:16:04;;;;;;;421.15;57.13;;;3.70;99.90;;;;;;4956243;28;20031;-73
2022/03/16 07:18:29;;;;;;;397.25;51.60;;;3.80;99.90;;;;;;4956556;28;20090;-72
2022/03/16 07:20:55;;;;;;;536.08;66.07;;;3.80;99.90;;;;;;4961221;28;20449;-72
2022/03/16 07:23:20;;;;;;;317.08;49.72;;;3.90;99.90;;;;;;4956167;28;20110;-73
2022/03/16 07:25:49;;;;;;;419.38;66.13;;;3.80;99.90;;;;;;4974972;28;20029;-73
2022/03/16 07:28:16;;;;;;;471.50;68.80;;;3.80;99.90;;;;;;4975279;28;20462;-72
2022/03/16 07:30:42;;;;;;;281.17;59.08;;;3.90;99.90;;;;;;4973613;28;20106;-73
2022/03/16 07:33:09;;;;;;;421.15;74.80;;;4.00;99.90;;;;;;4975291;28;20026;-72
2022/03/16 07:35:35;;;;;;;243.27;46.72;;;3.90;99.90;;;;;;4975122;28;20102;-72
2022/03/16 07:38:02;;;;;;;346.67;72.57;;;4.20;99.90;;;;;;4975200;28;20042;-73
2022/03/16 07:40:30;;;;;;;215.38;55.25;;;4.30;99.90;;;;;;4973615;28;20058;-72
2022/03/16 07:42:56;;;;;;;161.43;48.67;;;4.20;99.90;;;;;;4974997;28;20023;-72
2022/03/16 07:45:22;;;;;;;266.42;72.07;;;4.30;99.90;;;;;;4968247;28;20512;-72
2022/03/16 07:47:49;;;;;;;87.35;47.40;;;4.40;99.90;;;;;;4955619;28;20094;-72
2022/03/16 07:50:16;;;;;;;102.00;58.22;;;4.50;99.90;;;;;;4955586;28;20038;-73
2022/03/16 07:52:43;;;;;;;104.18;55.75;;;4.80;99.90;;;;;;4956248;28;20090;-73
2022/03/16 07:55:09;;;;;;;150.35;52.45;;;4.90;99.90;;;;;;4974919;28;20027;-72
2022/03/16 07:57:36;;;;;;;152.63;45.67;;;5.00;99.90;;;;;;4974168;28;20600;-72
2022/03/16 08:00:04;;;;;;;325.25;60.80;;;5.10;99.90;;;;;;4974856;28;20118;-72
2022/03/16 08:02:29;;;;;;;336.77;54.75;;;4.90;99.90;;;;;;4973848;28;20037;-72
2022/03/16 08:04:57;;;;;;;270.10;57.92;;;4.70;99.90;;;;;;4954194;29;20027;-72
2022/03/16 08:07:25;;;;;;;232.32;48.47;;;4.70;99.90;;;;;;4953987;29;20023;-72
2022/03/16 08:09:51;;;;;;;136.38;40.65;;;4.80;99.90;;;;;;4954363;28;20051;-72
2022/03/16 08:12:16;;;;;;;258.55;59.47;;;5.00;99.90;;;;;;4953075;28;20142;-71
2022/03/16 08:14:42;;;;;;;134.95;47.17;;;5.00;99.90;;;;;;4952761;29;20525;-72
2022/03/16 08:17:07;;;;;;;429.65;77.22;;;5.10;99.90;;;;;;4954592;29;20509;-72
2022/03/16 08:19:33;;;;;;;306.25;54.47;;;5.00;99.90;;;;;;4955157;28;20102;-72
2022/03/16 08:21:59;;;;;;;404.52;70.45;;;5.10;99.90;;;;;;4955143;28;20031;-71
2022/03/16 08:24:25;;;;;;;362.90;64.78;;;5.20;99.90;;;;;;4955041;28;20540;-72
2022/03/16 08:26:50;;;;;;;282.70;59.47;;;5.30;99.90;;;;;;4954997;29;20054;-72
2022/03/16 08:29:16;;;;;;;273.85;67.55;;;5.30;99.90;;;;;;4955163;28;20526;-72
2022/03/16 08:31:41;;;;;;;78.50;48.17;;;5.50;99.90;;;;;;4953015;28;20378;-72
2022/03/16 08:34:07;;;;;;;88.22;50.00;;;5.70;99.90;;;;;;4951856;28;20071;-72
2022/03/16 08:36:32;;;;;;;89.97;49.92;;;5.70;99.90;;;;;;4951695;28;20027;-72
2022/03/16 08:39:00;;;;;;;70.63;44.42;;;5.80;99.90;;;;;;4951619;29;20054;-72
2022/03/16 08:41:26;;;;;;;61.35;41.88;;;5.80;99.90;;;;;;4952025;28;20027;-73
2022/03/16 08:43:51;;;;;;;54.33;37.72;;;5.80;99.90;;;;;;4966231;28;20030;-72
2022/03/16 08:46:17;;;;;;;58.40;39.08;;;6.00;99.90;;;;;;4957921;28;20078;-72
2022/03/16 08:48:42;;;;;;;63.97;42.55;;;6.20;99.90;;;;;;4960116;28;20636;-70
2022/03/16 08:51:08;;;;;;;64.95;40.42;;;6.30;99.90;;;;;;4969349;28;20042;-69
2022/03/16 08:53:35;;;;;;;59.42;39.58;;;6.40;99.90;;;;;;4960284;28;20394;-70
2022/03/16 08:56:01;;;;;;;51.80;36.90;;;6.30;99.90;;;;;;4954701;28;20389;-72
2022/03/16 08:58:27;;;;;;;46.47;37.00;;;6.30;99.90;;;;;;4953238;28;20038;-72
2022/03/16 09:00:53;;;;;;;45.88;35.08;;;6.40;99.90;;;;;;4954256;28;20024;-72
2022/03/16 09:03:18;;;;;;;47.47;35.03;;;6.60;99.90;;;;;;4954390;28;20098;-72
2022/03/16 09:05:44;;;;;;;44.78;34.97;;;6.70;99.90;;;;;;4953950;28;20099;-71
2022/03/16 09:08:10;;;;;;;48.05;35.20;;;6.80;99.90;;;;;;4959583;28;20020;-72
2022/03/16 09:10:35;;;;;;;50.70;35.55;;;6.90;99.90;;;;;;4971951;28;20019;-72
2022/03/16 09:13:04;;;;;;;47.33;34.72;;;7.10;99.90;;;;;;4952252;28;20478;-72
2022/03/16 09:15:30;;;;;;;45.85;34.78;;;7.20;99.90;;;;;;4953311;29;20114;-72
2022/03/16 09:17:55;;;;;;;45.28;34.20;;;7.20;99.90;;;;;;4954277;28;20133;-73
2022/03/16 09:20:21;;;;;;;47.53;34.83;;;7.10;99.90;;;;;;4955746;28;20037;-72
2022/03/16 09:22:46;;;;;;;46.28;34.35;;;7.20;99.90;;;;;;4958451;28;20031;-72
2022/03/16 09:25:12;;;;;;;46.45;33.90;;;7.40;99.90;;;;;;4952738;29;20023;-72
2022/03/16 09:27:38;;;;;;;46.22;32.80;;;7.30;99.90;;;;;;4953948;28;20122;-72
2022/03/16 09:30:04;;;;;;;47.65;35.33;;;7.50;99.90;;;;;;4954001;28;20019;-72
2022/03/16 09:32:33;;;;;;;43.67;32.58;;;7.60;99.90;;;;;;4953723;28;20059;-72
2022/03/16 09:34:59;;;;;;;45.28;34.05;;;7.50;99.90;;;;;;4954271;28;20031;-72
2022/03/16 09:37:25;;;;;;;44.88;33.03;;;7.60;99.90;;;;;;4953749;28;20078;-72
2022/03/16 09:39:50;;;;;;;51.67;35.08;;;7.70;99.90;;;;;;4952700;28;20038;-72
2022/03/16 09:42:19;;;;;;;48.53;34.60;;;7.80;99.90;;;;;;4953624;28;20057;-72
2022/03/16 09:44:46;;;;;;;48.22;35.25;;;7.90;99.90;;;;;;4953784;28;20089;-72
2022/03/16 09:47:12;;;;;;;46.33;34.08;;;8.20;99.90;;;;;;4955813;28;20042;-72
2022/03/16 09:49:38;;;;;;;43.80;32.55;;;8.50;99.90;;;;;;4963832;28;20027;-70
2022/03/16 09:52:07;;;;;;;46.88;31.88;;;8.60;99.90;;;;;;4957344;28;20493;-72
2022/03/16 09:54:33;;;;;;;43.20;31.13;;;8.80;99.90;;;;;;4965879;28;20039;-72
2022/03/16 09:56:59;;;;;;;40.75;28.88;;;8.90;99.90;;;;;;4963373;28;20055;-72
2022/03/16 09:59:24;;;;;;;45.00;30.63;;;9.00;99.90;;;;;;4952446;28;20066;-72
2022/03/16 10:02:09;;;;;;;44.00;30.35;;;9.10;99.90;;;;;;4953312;28;20039;-72
2022/03/16 10:04:37;;;;;;;41.25;29.38;;;9.20;99.90;;;;;;4971860;28;20131;-72
2022/03/16 10:07:05;;;;;;;38.75;28.33;;;9.20;99.90;;;;;;4960951;28;20603;-72
2022/03/16 10:15:15;;;;;;;37.83;28.35;;;9.60;99.90;;;;;;4942078;29;20107;-72
2022/03/16 10:17:45;;;;;;;37.95;28.27;;;9.60;99.90;;;;;;4952875;29;20043;-72
2022/03/16 10:20:31;;;;;;;38.67;27.35;;;9.60;99.90;;;;;;4954208;28;20046;-72
2022/03/16 10:23:04;;;;;;;35.92;27.23;;;9.70;99.90;;;;;;4957192;28;20478;-72
2022/03/16 10:25:38;;;;;;;33.58;26.48;;;9.70;99.90;;;;;;4967604;28;20034;-72
2022/03/16 10:28:10;;;;;;;34.72;25.58;;;9.90;99.90;;;;;;4965181;28;20047;-72
2022/03/16 10:30:58;;;;;;;32.90;24.67;;;9.90;99.90;;;;;;4957039;28;20051;-72
2022/03/16 10:33:35;;;;;;;36.00;26.95;;;10.10;99.90;;;;;;4960524;28;20031;-72
2022/03/16 10:36:07;;;;;;;36.17;26.65;;;10.20;99.90;;;;;;4972486;28;20532;-72
2022/03/16 10:38:51;;;;;;;33.00;25.83;;;10.20;99.90;;;;;;4974017;28;20400;-72
2022/03/16 10:46:49;;;;;;;36.45;26.67;;;10.20;99.90;;;;;;4976389;28;20515;-72
2022/03/16 10:49:17;;;;;;;37.88;25.33;;;10.10;99.90;;;;;;4974887;28;20030;-71
2022/03/16 10:51:44;;;;;;;33.38;24.90;;;10.30;99.90;;;;;;4975766;28;20019;-72
2022/03/16 10:54:14;;;;;;;34.88;25.67;;;10.50;99.90;;;;;;4974980;28;20449;-72
2022/03/16 10:56:40;;;;;;;33.25;24.80;;;10.40;99.90;;;;;;4956999;28;20027;-72
2022/03/16 10:59:07;;;;;;;28.90;23.35;;;10.30;99.90;;;;;;4954820;29;20106;-71
2022/03/16 11:01:38;;;;;;;32.85;24.67;;;10.30;99.90;;;;;;4949634;28;20023;-73
2022/03/16 11:04:04;;;;;;;32.20;25.52;;;10.30;99.90;;;;;;4956118;28;20037;-72
2022/03/16 11:06:31;;;;;;;32.08;23.98;;;10.50;99.90;;;;;;4955036;28;20027;-72
2022/03/16 11:08:59;;;;;;;32.83;24.20;;;10.70;99.90;;;;;;4956942;28;20031;-72
2022/03/16 11:14:13;;;;;;;29.88;23.38;;;10.60;99.90;;;;;;4965279;28;20445;-72
2022/03/16 11:16:40;;;;;;;34.35;24.85;;;10.90;99.90;;;;;;4956086;28;20066;-72
2022/03/16 11:19:06;;;;;;;31.73;24.40;;;10.80;99.90;;;;;;4954748;29;20054;-72
2022/03/16 11:21:56;;;;;;;33.28;24.17;;;11.00;99.90;;;;;;4956194;28;20114;-72
2022/03/16 11:24:24;;;;;;;29.20;23.55;;;11.00;99.90;;;;;;4958870;28;20042;-71
2022/03/16 11:26:56;;;;;;;32.17;22.90;;;10.70;99.90;;;;;;4957627;28;20027;-72
2022/03/16 11:29:51;;;;;;;31.55;23.75;;;11.10;99.90;;;;;;4957271;28;20377;-72
2022/03/16 11:32:18;;;;;;;29.85;23.02;;;11.30;99.90;;;;;;4963120;28;20093;-73
2022/03/16 11:34:54;;;;;;;30.92;23.13;;;11.30;99.90;;;;;;4962057;28;20023;-72
2022/03/16 11:37:34;;;;;;;30.08;22.10;;;11.30;99.90;;;;;;4948365;28;20562;-72
2022/03/16 11:40:31;;;;;;;31.48;24.35;;;11.30;99.90;;;;;;4963113;28;20034;-72
2022/03/16 11:43:06;;;;;;;30.73;22.50;;;11.20;99.90;;;;;;4954163;28;20039;-72
2022/03/16 11:45:40;;;;;;;28.77;22.50;;;11.30;99.90;;;;;;4955718;28;20114;-71
2022/03/16 11:48:37;;;;;;;30.63;23.60;;;11.40;99.90;;;;;;4954190;28;20023;-73
2022/03/16 11:51:14;;;;;;;30.45;21.80;;;11.30;99.90;;;;;;4956423;28;20027;-72
2022/03/16 11:53:57;;;;;;;29.25;22.23;;;11.40;99.90;;;;;;4955606;28;20028;-72
2022/03/16 11:56:29;;;;;;;31.13;21.70;;;11.40;99.90;;;;;;4955089;28;20074;-72
2022/03/16 11:59:02;;;;;;;25.88;20.90;;;11.40;99.90;;;;;;4959672;28;20448;-72
2022/03/16 12:01:37;;;;;;;26.80;21.35;;;11.60;99.90;;;;;;4958779;28;20058;-72
2022/03/16 12:04:23;;;;;;;28.13;20.58;;;11.80;99.90;;;;;;4955692;28;20509;-72
2022/03/16 12:07:08;;;;;;;30.02;21.90;;;12.40;99.90;;;;;;4955244;29;20019;-72
2022/03/16 12:09:51;;;;;;;27.27;21.35;;;12.80;99.90;;;;;;4955898;28;20074;-73
2022/03/16 12:15:11;;;;;;;28.98;19.35;;;12.30;99.90;;;;;;4955462;29;20034;-72
2022/03/16 12:17:38;;;;;;;23.17;18.48;;;12.10;99.90;;;;;;4954968;28;20118;-73
2022/03/16 12:20:11;;;;;;;23.80;18.67;;;12.30;99.90;;;;;;4960599;28;20034;-72
2022/03/16 12:22:46;;;;;;;28.20;18.58;;;12.20;99.90;;;;;;4949746;28;20031;-72
2022/03/16 12:25:27;;;;;;;23.30;18.10;;;12.30;99.90;;;;;;4954864;28;20027;-72
2022/03/16 12:30:44;;;;;;;24.38;18.17;;;12.30;99.90;;;;;;4961043;28;20054;-72
2022/03/16 12:33:20;;;;;;;26.75;19.33;;;12.80;99.90;;;;;;4953879;28;20135;-72
2022/03/16 12:35:47;;;;;;;26.30;19.23;;;13.10;99.90;;;;;;4955984;28;20572;-74
2022/03/16 12:38:13;;;;;;;26.02;18.33;;;13.00;99.90;;;;;;4966741;28;20027;-72
2022/03/16 12:43:28;;;;;;;23.73;18.25;;;13.10;99.90;;;;;;4959200;28;20038;-73
2022/03/16 12:46:19;;;;;;;24.58;18.35;;;12.60;99.90;;;;;;4962248;28;20078;-73
2022/03/16 12:48:53;;;;;;;21.95;18.17;;;12.80;99.90;;;;;;4957124;28;20418;-73
2022/03/16 12:51:43;;;;;;;26.13;17.95;;;12.60;99.90;;;;;;4951638;28;20042;-72
2022/03/16 12:54:10;;;;;;;23.00;17.50;;;12.30;99.90;;;;;;4963531;28;20026;-73
2022/03/16 12:56:48;;;;;;;20.35;16.92;;;12.20;99.90;;;;;;4968288;28;20030;-72